Terminal Aerodrome Forecast
Issued by NWS

Home | Current Version | Previous Version | Text Only | Print | Product List | Glossary On
Versions: 1 2 3 4 5 6 7 8 9 10 11 12 13 14 15 16 17
000
FTUS42 KJAX 240500
TAFVQQ
TAF
KVQQ 240520Z 2406/2506 19005KT P6SM SCT012 BKN060 WS015/22035KT
      TEMPO 2406/2409 3SM BR BKN008
     FM240900 20003KT 2SM BR OVC006
      TEMPO 2409/2413 1/2SM FG OVC003
     FM241500 21012G20KT P6SM VCSH BKN020
     FM242300 22007KT P6SM VCSH BKN025=

USA.gov is the U.S. government's official web portal to all federal, state and local government web resources and services.